Главная страница
METAR-TAF:

METAR-TAF

Аэропорты :

Pocono Mountains Municipal Airport

Mount Pocono, Пенсильвания, США

широта: 41-08-20N, долгота: 075-23-46W, высота над уровнем моря: 584 м

Текущие метеонаблюдения

Эта сводка был подготовлена 23 минут назад, в 06:53 UTC
Ветер 5 Узел от северо-северо-восточный
Температура 8°C
Влажность 87%
Давление 1023 hPa
Видимость: 16.1 км
ясное небо

METAR: KMPO 180653Z AUTO 02005KT 10SM CLR 08/06 A3020 RMK AO2 SLP226 T00780061

Время: 03:16 (07:16 UTC)


TAF: отсутствует

Метеонаблюдения и прогнозы для более 4000 аэропортов (сводки METAR и TAF).

Имеющиеся станции представлены на карте желтыми и красными точками.

Чтобы увидеть название станции, наведите на нее мышь.

Затем щелкните, чтобы увидеть метеонаблюдения и метеопрогнозы.

Управление картой: чтобы увеличить масштаб, щелкните зеленые кнопки с черным крестиком; чтобы уменьшить масштаб, щелкните зеленую кнопку с тире; для просмотра соседних карт щелкайте зеленые стрелки.


METAR-TAF: